sensor_id;sensor_type;location;lat;lon;timestamp;P1;durP1;ratioP1;P2;durP2;ratioP2
15112;SDS011;7657;50.140;7.076;2022-10-13T00:00:28;17.08;;;11.13;;
15112;SDS011;7657;50.140;7.076;2022-10-13T00:02:57;19.27;;;12.13;;
15112;SDS011;7657;50.140;7.076;2022-10-13T00:05:25;20.00;;;11.93;;
15112;SDS011;7657;50.140;7.076;2022-10-13T00:07:52;18.10;;;10.77;;
15112;SDS011;7657;50.140;7.076;2022-10-13T00:10:18;31.60;;;11.52;;
15112;SDS011;7657;50.140;7.076;2022-10-13T00:12:47;18.00;;;12.05;;
15112;SDS011;7657;50.140;7.076;2022-10-13T00:15:14;24.70;;;12.15;;
15112;SDS011;7657;50.140;7.076;2022-10-13T00:17:40;21.63;;;12.05;;
15112;SDS011;7657;50.140;7.076;2022-10-13T00:20:08;20.65;;;11.88;;
15112;SDS011;7657;50.140;7.076;2022-10-13T00:22:36;18.20;;;11.85;;
15112;SDS011;7657;50.140;7.076;2022-10-13T00:25:03;20.70;;;12.05;;
15112;SDS011;7657;50.140;7.076;2022-10-13T00:27:31;19.40;;;10.45;;
15112;SDS011;7657;50.140;7.076;2022-10-13T00:29:59;24.83;;;10.57;;
15112;SDS011;7657;50.140;7.076;2022-10-13T00:32:26;25.98;;;10.57;;
15112;SDS011;7657;50.140;7.076;2022-10-13T00:34:54;25.10;;;11.52;;
15112;SDS011;7657;50.140;7.076;2022-10-13T00:37:21;35.58;;;11.45;;
15112;SDS011;7657;50.140;7.076;2022-10-13T00:39:48;49.35;;;10.82;;
15112;SDS011;7657;50.140;7.076;2022-10-13T00:42:16;57.50;;;11.35;;
15112;SDS011;7657;50.140;7.076;2022-10-13T00:47:45;30.00;;;10.23;;
15112;SDS011;7657;50.140;7.076;2022-10-13T00:50:18;36.75;;;9.98;;
15112;SDS011;7657;50.140;7.076;2022-10-13T00:52:48;20.40;;;9.57;;
15112;SDS011;7657;50.140;7.076;2022-10-13T00:55:16;25.90;;;10.35;;
15112;SDS011;7657;50.140;7.076;2022-10-13T00:57:45;37.90;;;10.82;;
15112;SDS011;7657;50.140;7.076;2022-10-13T01:00:20;25.45;;;10.40;;
15112;SDS011;7657;50.140;7.076;2022-10-13T01:02:47;28.58;;;10.95;;
15112;SDS011;7657;50.140;7.076;2022-10-13T01:05:15;42.40;;;11.30;;
15112;SDS011;7657;50.140;7.076;2022-10-13T01:07:44;34.83;;;10.75;;
15112;SDS011;7657;50.140;7.076;2022-10-13T01:10:13;39.28;;;11.43;;
15112;SDS011;7657;50.140;7.076;2022-10-13T01:12:49;38.60;;;11.02;;
15112;SDS011;7657;50.140;7.076;2022-10-13T01:15:26;45.92;;;10.57;;
15112;SDS011;7657;50.140;7.076;2022-10-13T01:17:59;40.13;;;10.40;;
15112;SDS011;7657;50.140;7.076;2022-10-13T01:26:35;17.10;;;8.85;;
15112;SDS011;7657;50.140;7.076;2022-10-13T01:29:26;22.95;;;8.80;;
15112;SDS011;7657;50.140;7.076;2022-10-13T01:32:15;29.15;;;9.73;;
15112;SDS011;7657;50.140;7.076;2022-10-13T01:34:49;30.30;;;9.27;;
15112;SDS011;7657;50.140;7.076;2022-10-13T01:37:21;18.83;;;9.18;;
15112;SDS011;7657;50.140;7.076;2022-10-13T01:39:55;17.30;;;9.57;;
15112;SDS011;7657;50.140;7.076;2022-10-13T01:42:30;15.70;;;9.98;;
15112;SDS011;7657;50.140;7.076;2022-10-13T01:45:04;27.00;;;10.35;;
15112;SDS011;7657;50.140;7.076;2022-10-13T01:47:35;17.38;;;9.48;;
15112;SDS011;7657;50.140;7.076;2022-10-13T01:50:03;19.90;;;10.32;;
15112;SDS011;7657;50.140;7.076;2022-10-13T01:52:32;16.63;;;10.57;;
15112;SDS011;7657;50.140;7.076;2022-10-13T01:55:05;12.75;;;8.73;;
15112;SDS011;7657;50.140;7.076;2022-10-13T01:57:34;13.15;;;8.45;;
15112;SDS011;7657;50.140;7.076;2022-10-13T02:00:05;13.90;;;8.60;;
15112;SDS011;7657;50.140;7.076;2022-10-13T02:02:36;12.75;;;8.38;;
15112;SDS011;7657;50.140;7.076;2022-10-13T02:05:12;13.90;;;8.85;;
15112;SDS011;7657;50.140;7.076;2022-10-13T02:07:47;16.58;;;9.02;;
15112;SDS011;7657;50.140;7.076;2022-10-13T02:10:19;14.43;;;8.90;;
15112;SDS011;7657;50.140;7.076;2022-10-13T02:12:52;15.98;;;8.50;;
15112;SDS011;7657;50.140;7.076;2022-10-13T02:15:27;15.77;;;9.05;;
15112;SDS011;7657;50.140;7.076;2022-10-13T02:17:56;14.98;;;8.70;;
15112;SDS011;7657;50.140;7.076;2022-10-13T02:20:25;12.32;;;8.38;;
15112;SDS011;7657;50.140;7.076;2022-10-13T02:22:54;19.08;;;10.18;;
15112;SDS011;7657;50.140;7.076;2022-10-13T02:25:26;13.88;;;7.93;;
15112;SDS011;7657;50.140;7.076;2022-10-13T02:27:54;14.88;;;8.68;;
15112;SDS011;7657;50.140;7.076;2022-10-13T02:30:25;13.90;;;7.95;;
15112;SDS011;7657;50.140;7.076;2022-10-13T02:32:54;13.23;;;8.48;;
15112;SDS011;7657;50.140;7.076;2022-10-13T02:35:21;17.33;;;8.93;;
15112;SDS011;7657;50.140;7.076;2022-10-13T02:37:48;20.80;;;9.48;;
15112;SDS011;7657;50.140;7.076;2022-10-13T02:40:15;17.42;;;8.68;;
15112;SDS011;7657;50.140;7.076;2022-10-13T02:42:42;26.08;;;9.90;;
15112;SDS011;7657;50.140;7.076;2022-10-13T02:45:09;22.98;;;9.88;;
15112;SDS011;7657;50.140;7.076;2022-10-13T02:47:37;19.55;;;10.00;;
15112;SDS011;7657;50.140;7.076;2022-10-13T02:50:05;19.15;;;10.15;;
15112;SDS011;7657;50.140;7.076;2022-10-13T02:52:32;16.00;;;10.00;;
15112;SDS011;7657;50.140;7.076;2022-10-13T02:54:59;28.90;;;9.82;;
15112;SDS011;7657;50.140;7.076;2022-10-13T02:57:27;43.53;;;10.68;;
15112;SDS011;7657;50.140;7.076;2022-10-13T02:59:54;20.67;;;10.32;;
15112;SDS011;7657;50.140;7.076;2022-10-13T03:02:21;19.00;;;9.73;;
15112;SDS011;7657;50.140;7.076;2022-10-13T03:04:49;23.88;;;10.45;;
15112;SDS011;7657;50.140;7.076;2022-10-13T03:07:16;18.40;;;10.68;;
15112;SDS011;7657;50.140;7.076;2022-10-13T03:09:43;29.00;;;11.30;;
15112;SDS011;7657;50.140;7.076;2022-10-13T03:12:10;24.83;;;10.73;;
15112;SDS011;7657;50.140;7.076;2022-10-13T03:14:37;23.10;;;11.20;;
15112;SDS011;7657;50.140;7.076;2022-10-13T03:17:04;32.03;;;12.13;;
15112;SDS011;7657;50.140;7.076;2022-10-13T03:19:31;30.95;;;11.93;;
15112;SDS011;7657;50.140;7.076;2022-10-13T03:21:59;29.90;;;12.70;;
15112;SDS011;7657;50.140;7.076;2022-10-13T03:24:26;28.25;;;11.77;;
15112;SDS011;7657;50.140;7.076;2022-10-13T03:26:53;36.13;;;11.95;;
15112;SDS011;7657;50.140;7.076;2022-10-13T03:29:20;29.20;;;11.48;;
15112;SDS011;7657;50.140;7.076;2022-10-13T03:31:47;26.20;;;11.15;;
15112;SDS011;7657;50.140;7.076;2022-10-13T03:34:15;28.75;;;11.40;;
15112;SDS011;7657;50.140;7.076;2022-10-13T03:36:44;23.20;;;11.55;;
15112;SDS011;7657;50.140;7.076;2022-10-13T03:39:12;17.27;;;9.77;;
15112;SDS011;7657;50.140;7.076;2022-10-13T03:41:39;14.60;;;9.65;;
15112;SDS011;7657;50.140;7.076;2022-10-13T03:44:07;14.48;;;8.82;;
15112;SDS011;7657;50.140;7.076;2022-10-13T03:46:36;20.00;;;10.07;;
15112;SDS011;7657;50.140;7.076;2022-10-13T03:49:03;14.57;;;9.77;;
15112;SDS011;7657;50.140;7.076;2022-10-13T03:51:30;19.58;;;10.80;;
15112;SDS011;7657;50.140;7.076;2022-10-13T03:53:57;13.98;;;8.88;;
15112;SDS011;7657;50.140;7.076;2022-10-13T03:56:26;14.18;;;8.40;;
15112;SDS011;7657;50.140;7.076;2022-10-13T03:58:54;13.52;;;7.90;;
15112;SDS011;7657;50.140;7.076;2022-10-13T04:01:23;12.63;;;8.07;;
15112;SDS011;7657;50.140;7.076;2022-10-13T04:03:51;15.77;;;8.82;;
15112;SDS011;7657;50.140;7.076;2022-10-13T04:06:19;13.48;;;8.93;;
15112;SDS011;7657;50.140;7.076;2022-10-13T04:08:47;13.93;;;8.73;;
15112;SDS011;7657;50.140;7.076;2022-10-13T04:11:14;14.43;;;9.05;;
15112;SDS011;7657;50.140;7.076;2022-10-13T04:13:43;13.50;;;8.50;;
15112;SDS011;7657;50.140;7.076;2022-10-13T04:16:11;13.20;;;8.40;;
15112;SDS011;7657;50.140;7.076;2022-10-13T04:18:41;12.82;;;8.48;;
15112;SDS011;7657;50.140;7.076;2022-10-13T04:21:09;14.75;;;9.00;;
15112;SDS011;7657;50.140;7.076;2022-10-13T04:23:37;14.07;;;8.93;;
15112;SDS011;7657;50.140;7.076;2022-10-13T04:26:05;37.97;;;9.60;;
15112;SDS011;7657;50.140;7.076;2022-10-13T04:28:32;17.38;;;8.90;;
15112;SDS011;7657;50.140;7.076;2022-10-13T04:31:01;16.15;;;8.70;;
15112;SDS011;7657;50.140;7.076;2022-10-13T04:33:29;18.02;;;8.38;;
15112;SDS011;7657;50.140;7.076;2022-10-13T04:35:56;20.60;;;9.07;;
15112;SDS011;7657;50.140;7.076;2022-10-13T04:38:23;12.95;;;8.13;;
15112;SDS011;7657;50.140;7.076;2022-10-13T04:40:49;11.70;;;7.18;;
15112;SDS011;7657;50.140;7.076;2022-10-13T04:43:16;11.18;;;7.78;;
15112;SDS011;7657;50.140;7.076;2022-10-13T04:45:43;11.82;;;7.47;;
15112;SDS011;7657;50.140;7.076;2022-10-13T04:48:11;11.82;;;7.70;;
15112;SDS011;7657;50.140;7.076;2022-10-13T04:50:38;14.60;;;8.13;;
15112;SDS011;7657;50.140;7.076;2022-10-13T04:53:05;17.75;;;9.38;;
15112;SDS011;7657;50.140;7.076;2022-10-13T04:55:34;30.25;;;9.00;;
15112;SDS011;7657;50.140;7.076;2022-10-13T04:58:01;44.38;;;8.63;;
15112;SDS011;7657;50.140;7.076;2022-10-13T05:00:28;22.77;;;8.82;;
15112;SDS011;7657;50.140;7.076;2022-10-13T05:02:55;52.20;;;9.15;;
15112;SDS011;7657;50.140;7.076;2022-10-13T05:05:24;31.42;;;8.18;;
15112;SDS011;7657;50.140;7.076;2022-10-13T05:07:51;38.92;;;8.73;;
15112;SDS011;7657;50.140;7.076;2022-10-13T05:10:17;56.80;;;10.15;;
15112;SDS011;7657;50.140;7.076;2022-10-13T05:12:44;34.92;;;9.65;;
15112;SDS011;7657;50.140;7.076;2022-10-13T05:15:11;54.83;;;9.82;;
15112;SDS011;7657;50.140;7.076;2022-10-13T05:17:38;18.55;;;9.00;;
15112;SDS011;7657;50.140;7.076;2022-10-13T05:20:05;22.85;;;9.68;;
15112;SDS011;7657;50.140;7.076;2022-10-13T05:22:35;16.30;;;8.93;;
15112;SDS011;7657;50.140;7.076;2022-10-13T05:25:02;16.25;;;9.90;;
15112;SDS011;7657;50.140;7.076;2022-10-13T05:27:30;17.48;;;9.43;;
15112;SDS011;7657;50.140;7.076;2022-10-13T05:29:56;17.70;;;10.38;;
15112;SDS011;7657;50.140;7.076;2022-10-13T05:32:23;14.23;;;9.23;;
15112;SDS011;7657;50.140;7.076;2022-10-13T05:34:50;17.17;;;9.30;;
15112;SDS011;7657;50.140;7.076;2022-10-13T05:37:17;16.75;;;9.85;;
15112;SDS011;7657;50.140;7.076;2022-10-13T05:39:48;15.13;;;9.70;;
15112;SDS011;7657;50.140;7.076;2022-10-13T05:42:15;16.70;;;9.85;;
15112;SDS011;7657;50.140;7.076;2022-10-13T05:44:42;16.15;;;9.05;;
15112;SDS011;7657;50.140;7.076;2022-10-13T05:47:09;17.80;;;9.23;;
15112;SDS011;7657;50.140;7.076;2022-10-13T05:49:36;16.88;;;10.25;;
15112;SDS011;7657;50.140;7.076;2022-10-13T05:52:05;16.95;;;9.52;;
15112;SDS011;7657;50.140;7.076;2022-10-13T05:54:35;15.40;;;9.38;;
15112;SDS011;7657;50.140;7.076;2022-10-13T05:57:06;14.82;;;9.02;;
15112;SDS011;7657;50.140;7.076;2022-10-13T05:59:39;19.40;;;10.23;;
15112;SDS011;7657;50.140;7.076;2022-10-13T06:02:10;22.60;;;11.13;;
15112;SDS011;7657;50.140;7.076;2022-10-13T06:04:40;20.38;;;10.05;;
15112;SDS011;7657;50.140;7.076;2022-10-13T06:07:10;28.45;;;12.40;;
15112;SDS011;7657;50.140;7.076;2022-10-13T06:09:38;69.25;;;11.02;;
15112;SDS011;7657;50.140;7.076;2022-10-13T06:12:08;53.35;;;11.23;;
15112;SDS011;7657;50.140;7.076;2022-10-13T06:14:35;61.15;;;10.15;;
15112;SDS011;7657;50.140;7.076;2022-10-13T06:17:03;38.22;;;8.57;;
15112;SDS011;7657;50.140;7.076;2022-10-13T06:19:30;18.75;;;7.55;;
15112;SDS011;7657;50.140;7.076;2022-10-13T06:21:57;16.50;;;8.95;;
15112;SDS011;7657;50.140;7.076;2022-10-13T06:24:23;19.20;;;8.90;;
15112;SDS011;7657;50.140;7.076;2022-10-13T06:26:50;29.90;;;20.83;;
15112;SDS011;7657;50.140;7.076;2022-10-13T06:29:19;13.15;;;8.77;;
15112;SDS011;7657;50.140;7.076;2022-10-13T06:31:46;13.30;;;8.18;;
15112;SDS011;7657;50.140;7.076;2022-10-13T06:34:13;12.40;;;7.85;;
15112;SDS011;7657;50.140;7.076;2022-10-13T06:36:40;12.02;;;7.47;;
15112;SDS011;7657;50.140;7.076;2022-10-13T06:39:07;11.02;;;7.60;;
15112;SDS011;7657;50.140;7.076;2022-10-13T06:41:35;11.70;;;7.55;;
15112;SDS011;7657;50.140;7.076;2022-10-13T06:44:02;12.02;;;7.85;;
15112;SDS011;7657;50.140;7.076;2022-10-13T06:46:30;12.57;;;8.35;;
15112;SDS011;7657;50.140;7.076;2022-10-13T06:48:57;13.82;;;8.52;;
15112;SDS011;7657;50.140;7.076;2022-10-13T06:51:24;11.27;;;8.15;;
15112;SDS011;7657;50.140;7.076;2022-10-13T06:53:51;14.48;;;8.05;;
15112;SDS011;7657;50.140;7.076;2022-10-13T06:56:20;11.05;;;7.85;;
15112;SDS011;7657;50.140;7.076;2022-10-13T06:58:47;10.57;;;7.20;;
15112;SDS011;7657;50.140;7.076;2022-10-13T07:01:14;10.02;;;6.72;;
15112;SDS011;7657;50.140;7.076;2022-10-13T07:03:42;12.55;;;7.80;;
15112;SDS011;7657;50.140;7.076;2022-10-13T07:06:09;12.07;;;7.35;;
15112;SDS011;7657;50.140;7.076;2022-10-13T07:08:36;10.98;;;8.10;;
15112;SDS011;7657;50.140;7.076;2022-10-13T07:11:06;13.32;;;8.50;;
15112;SDS011;7657;50.140;7.076;2022-10-13T07:13:34;13.65;;;8.60;;
15112;SDS011;7657;50.140;7.076;2022-10-13T07:16:01;12.82;;;8.23;;
15112;SDS011;7657;50.140;7.076;2022-10-13T07:18:29;13.05;;;8.43;;
15112;SDS011;7657;50.140;7.076;2022-10-13T07:20:58;12.90;;;7.93;;
15112;SDS011;7657;50.140;7.076;2022-10-13T07:23:26;12.60;;;8.65;;
15112;SDS011;7657;50.140;7.076;2022-10-13T07:25:54;13.02;;;7.97;;
15112;SDS011;7657;50.140;7.076;2022-10-13T07:28:21;11.38;;;8.07;;
15112;SDS011;7657;50.140;7.076;2022-10-13T07:30:48;11.55;;;7.68;;
15112;SDS011;7657;50.140;7.076;2022-10-13T07:33:15;14.35;;;7.72;;
15112;SDS011;7657;50.140;7.076;2022-10-13T07:35:42;12.63;;;7.78;;
15112;SDS011;7657;50.140;7.076;2022-10-13T07:38:10;12.15;;;8.60;;
15112;SDS011;7657;50.140;7.076;2022-10-13T07:40:37;14.32;;;8.35;;
15112;SDS011;7657;50.140;7.076;2022-10-13T07:43:04;12.50;;;8.93;;
15112;SDS011;7657;50.140;7.076;2022-10-13T07:45:31;14.38;;;7.82;;
15112;SDS011;7657;50.140;7.076;2022-10-13T07:47:58;12.63;;;8.20;;
15112;SDS011;7657;50.140;7.076;2022-10-13T07:50:25;10.95;;;7.38;;
15112;SDS011;7657;50.140;7.076;2022-10-13T07:52:52;12.60;;;7.53;;
15112;SDS011;7657;50.140;7.076;2022-10-13T07:55:20;11.38;;;7.00;;
15112;SDS011;7657;50.140;7.076;2022-10-13T07:57:47;11.77;;;7.93;;
15112;SDS011;7657;50.140;7.076;2022-10-13T08:00:14;11.48;;;7.65;;
15112;SDS011;7657;50.140;7.076;2022-10-13T08:02:41;14.07;;;7.80;;
15112;SDS011;7657;50.140;7.076;2022-10-13T08:05:08;14.60;;;8.45;;
15112;SDS011;7657;50.140;7.076;2022-10-13T08:07:35;13.93;;;8.18;;
15112;SDS011;7657;50.140;7.076;2022-10-13T08:10:03;13.82;;;8.05;;
15112;SDS011;7657;50.140;7.076;2022-10-13T08:12:33;12.30;;;7.90;;
15112;SDS011;7657;50.140;7.076;2022-10-13T08:15:00;13.30;;;8.00;;
15112;SDS011;7657;50.140;7.076;2022-10-13T08:17:27;9.63;;;7.63;;
15112;SDS011;7657;50.140;7.076;2022-10-13T08:19:54;13.40;;;8.07;;
15112;SDS011;7657;50.140;7.076;2022-10-13T08:22:22;11.05;;;8.27;;
15112;SDS011;7657;50.140;7.076;2022-10-13T08:24:49;10.38;;;7.68;;
15112;SDS011;7657;50.140;7.076;2022-10-13T08:27:17;13.88;;;8.18;;
15112;SDS011;7657;50.140;7.076;2022-10-13T08:29:48;14.63;;;8.38;;
15112;SDS011;7657;50.140;7.076;2022-10-13T08:32:15;12.82;;;7.97;;
15112;SDS011;7657;50.140;7.076;2022-10-13T08:34:45;13.20;;;8.77;;
15112;SDS011;7657;50.140;7.076;2022-10-13T08:37:12;15.65;;;10.23;;
15112;SDS011;7657;50.140;7.076;2022-10-13T08:39:39;13.60;;;9.38;;
15112;SDS011;7657;50.140;7.076;2022-10-13T08:42:11;14.02;;;9.45;;
15112;SDS011;7657;50.140;7.076;2022-10-13T08:44:40;16.77;;;9.88;;
15112;SDS011;7657;50.140;7.076;2022-10-13T08:47:13;17.52;;;10.88;;
15112;SDS011;7657;50.140;7.076;2022-10-13T08:49:46;16.85;;;10.32;;
15112;SDS011;7657;50.140;7.076;2022-10-13T08:52:15;16.63;;;10.18;;
15112;SDS011;7657;50.140;7.076;2022-10-13T08:54:45;17.23;;;10.23;;
15112;SDS011;7657;50.140;7.076;2022-10-13T08:57:12;17.85;;;10.75;;
15112;SDS011;7657;50.140;7.076;2022-10-13T08:59:39;14.05;;;10.18;;
15112;SDS011;7657;50.140;7.076;2022-10-13T09:02:08;16.50;;;10.85;;
15112;SDS011;7657;50.140;7.076;2022-10-13T09:04:40;15.43;;;10.23;;
15112;SDS011;7657;50.140;7.076;2022-10-13T09:07:10;17.63;;;11.88;;
15112;SDS011;7657;50.140;7.076;2022-10-13T09:09:40;16.45;;;10.57;;
15112;SDS011;7657;50.140;7.076;2022-10-13T09:12:09;17.85;;;10.02;;
15112;SDS011;7657;50.140;7.076;2022-10-13T09:14:37;16.13;;;9.90;;
15112;SDS011;7657;50.140;7.076;2022-10-13T09:17:17;15.15;;;9.38;;
15112;SDS011;7657;50.140;7.076;2022-10-13T09:19:56;13.07;;;9.07;;
15112;SDS011;7657;50.140;7.076;2022-10-13T09:22:25;14.63;;;9.13;;
15112;SDS011;7657;50.140;7.076;2022-10-13T09:27:51;18.27;;;11.05;;
15112;SDS011;7657;50.140;7.076;2022-10-13T09:30:29;18.20;;;11.20;;
15112;SDS011;7657;50.140;7.076;2022-10-13T09:33:20;16.38;;;10.30;;
15112;SDS011;7657;50.140;7.076;2022-10-13T09:35:49;17.20;;;11.27;;
15112;SDS011;7657;50.140;7.076;2022-10-13T09:38:35;18.73;;;11.90;;
15112;SDS011;7657;50.140;7.076;2022-10-13T09:41:03;18.42;;;11.57;;
15112;SDS011;7657;50.140;7.076;2022-10-13T09:43:37;16.77;;;10.18;;
15112;SDS011;7657;50.140;7.076;2022-10-13T09:46:11;17.13;;;11.20;;
15112;SDS011;7657;50.140;7.076;2022-10-13T09:48:52;14.68;;;10.23;;
15112;SDS011;7657;50.140;7.076;2022-10-13T09:54:23;20.85;;;10.88;;
15112;SDS011;7657;50.140;7.076;2022-10-13T09:56:52;14.30;;;10.10;;
15112;SDS011;7657;50.140;7.076;2022-10-13T09:59:25;17.77;;;11.15;;
15112;SDS011;7657;50.140;7.076;2022-10-13T10:01:57;15.23;;;10.20;;
15112;SDS011;7657;50.140;7.076;2022-10-13T10:04:30;18.83;;;10.98;;
15112;SDS011;7657;50.140;7.076;2022-10-13T10:07:09;18.17;;;10.88;;
15112;SDS011;7657;50.140;7.076;2022-10-13T10:09:37;18.75;;;11.80;;
15112;SDS011;7657;50.140;7.076;2022-10-13T10:12:10;17.38;;;10.65;;
15112;SDS011;7657;50.140;7.076;2022-10-13T10:14:41;16.98;;;11.05;;
15112;SDS011;7657;50.140;7.076;2022-10-13T10:17:12;14.32;;;10.98;;
15112;SDS011;7657;50.140;7.076;2022-10-13T10:19:50;16.65;;;10.75;;
15112;SDS011;7657;50.140;7.076;2022-10-13T10:22:29;16.23;;;11.43;;
15112;SDS011;7657;50.140;7.076;2022-10-13T10:25:06;17.70;;;11.43;;
15112;SDS011;7657;50.140;7.076;2022-10-13T10:27:44;18.00;;;10.77;;
15112;SDS011;7657;50.140;7.076;2022-10-13T10:30:18;16.33;;;11.25;;
15112;SDS011;7657;50.140;7.076;2022-10-13T10:32:46;16.13;;;11.30;;
15112;SDS011;7657;50.140;7.076;2022-10-13T10:35:21;18.05;;;10.70;;
15112;SDS011;7657;50.140;7.076;2022-10-13T10:38:00;15.43;;;10.13;;
15112;SDS011;7657;50.140;7.076;2022-10-13T10:40:35;18.48;;;10.90;;
15112;SDS011;7657;50.140;7.076;2022-10-13T10:43:29;14.98;;;10.43;;
15112;SDS011;7657;50.140;7.076;2022-10-13T10:46:03;14.98;;;10.25;;
15112;SDS011;7657;50.140;7.076;2022-10-13T10:48:37;14.98;;;10.07;;
15112;SDS011;7657;50.140;7.076;2022-10-13T10:51:07;15.85;;;10.20;;
15112;SDS011;7657;50.140;7.076;2022-10-13T10:53:36;15.45;;;10.35;;
15112;SDS011;7657;50.140;7.076;2022-10-13T10:56:10;15.90;;;10.30;;
15112;SDS011;7657;50.140;7.076;2022-10-13T10:58:42;14.55;;;10.05;;
15112;SDS011;7657;50.140;7.076;2022-10-13T11:01:18;14.45;;;9.90;;
15112;SDS011;7657;50.140;7.076;2022-10-13T11:03:54;16.35;;;10.50;;
15112;SDS011;7657;50.140;7.076;2022-10-13T11:06:34;15.52;;;10.57;;
15112;SDS011;7657;50.140;7.076;2022-10-13T11:09:02;16.08;;;10.38;;
15112;SDS011;7657;50.140;7.076;2022-10-13T11:11:31;14.35;;;10.20;;
15112;SDS011;7657;50.140;7.076;2022-10-13T11:17:15;13.50;;;10.32;;
15112;SDS011;7657;50.140;7.076;2022-10-13T11:19:44;17.30;;;10.10;;
15112;SDS011;7657;50.140;7.076;2022-10-13T11:22:15;14.95;;;9.35;;
15112;SDS011;7657;50.140;7.076;2022-10-13T11:25:07;14.25;;;9.95;;
15112;SDS011;7657;50.140;7.076;2022-10-13T11:33:54;15.70;;;9.82;;
15112;SDS011;7657;50.140;7.076;2022-10-13T11:39:32;16.15;;;9.45;;
15112;SDS011;7657;50.140;7.076;2022-10-13T11:45:58;13.07;;;8.60;;
15112;SDS011;7657;50.140;7.076;2022-10-13T11:48:53;11.02;;;7.53;;
15112;SDS011;7657;50.140;7.076;2022-10-13T11:51:54;14.40;;;8.65;;
15112;SDS011;7657;50.140;7.076;2022-10-13T11:54:34;14.57;;;8.23;;
15112;SDS011;7657;50.140;7.076;2022-10-13T11:57:15;13.80;;;7.80;;
15112;SDS011;7657;50.140;7.076;2022-10-13T11:59:44;15.15;;;8.05;;
15112;SDS011;7657;50.140;7.076;2022-10-13T12:02:13;11.55;;;7.75;;
15112;SDS011;7657;50.140;7.076;2022-10-13T12:04:42;11.23;;;7.43;;
15112;SDS011;7657;50.140;7.076;2022-10-13T12:07:10;14.50;;;8.00;;
15112;SDS011;7657;50.140;7.076;2022-10-13T12:09:47;14.80;;;7.68;;
15112;SDS011;7657;50.140;7.076;2022-10-13T12:12:16;13.68;;;7.78;;
15112;SDS011;7657;50.140;7.076;2022-10-13T12:14:45;11.27;;;7.07;;
15112;SDS011;7657;50.140;7.076;2022-10-13T12:17:18;13.18;;;7.40;;
15112;SDS011;7657;50.140;7.076;2022-10-13T12:19:47;13.00;;;7.57;;
15112;SDS011;7657;50.140;7.076;2022-10-13T12:22:15;11.32;;;6.80;;
15112;SDS011;7657;50.140;7.076;2022-10-13T12:24:41;12.88;;;7.20;;
15112;SDS011;7657;50.140;7.076;2022-10-13T12:27:10;11.55;;;7.53;;
15112;SDS011;7657;50.140;7.076;2022-10-13T12:29:45;11.93;;;7.40;;
15112;SDS011;7657;50.140;7.076;2022-10-13T12:32:17;13.80;;;7.40;;
15112;SDS011;7657;50.140;7.076;2022-10-13T12:34:44;12.80;;;7.00;;
15112;SDS011;7657;50.140;7.076;2022-10-13T12:37:13;12.48;;;7.50;;
15112;SDS011;7657;50.140;7.076;2022-10-13T12:39:46;10.60;;;7.35;;
15112;SDS011;7657;50.140;7.076;2022-10-13T12:42:15;10.32;;;7.65;;
15112;SDS011;7657;50.140;7.076;2022-10-13T12:44:43;11.68;;;7.20;;
15112;SDS011;7657;50.140;7.076;2022-10-13T12:53:13;9.63;;;6.45;;
15112;SDS011;7657;50.140;7.076;2022-10-13T12:55:46;11.75;;;6.95;;
15112;SDS011;7657;50.140;7.076;2022-10-13T12:58:19;10.32;;;6.97;;
15112;SDS011;7657;50.140;7.076;2022-10-13T13:00:55;10.10;;;6.80;;
15112;SDS011;7657;50.140;7.076;2022-10-13T13:03:26;12.82;;;6.70;;
15112;SDS011;7657;50.140;7.076;2022-10-13T13:12:14;10.07;;;6.00;;
15112;SDS011;7657;50.140;7.076;2022-10-13T13:14:50;8.35;;;5.78;;
15112;SDS011;7657;50.140;7.076;2022-10-13T13:17:26;13.13;;;6.00;;
15112;SDS011;7657;50.140;7.076;2022-10-13T13:19:55;7.43;;;5.30;;
15112;SDS011;7657;50.140;7.076;2022-10-13T13:22:23;7.45;;;5.38;;
15112;SDS011;7657;50.140;7.076;2022-10-13T13:24:50;9.10;;;5.63;;
15112;SDS011;7657;50.140;7.076;2022-10-13T13:27:23;7.70;;;5.30;;
15112;SDS011;7657;50.140;7.076;2022-10-13T13:29:53;9.32;;;5.55;;
15112;SDS011;7657;50.140;7.076;2022-10-13T13:32:21;8.23;;;5.07;;
15112;SDS011;7657;50.140;7.076;2022-10-13T13:34:50;11.68;;;5.75;;
15112;SDS011;7657;50.140;7.076;2022-10-13T13:37:27;9.00;;;5.70;;
15112;SDS011;7657;50.140;7.076;2022-10-13T13:39:56;8.15;;;5.50;;
15112;SDS011;7657;50.140;7.076;2022-10-13T13:42:25;14.88;;;6.00;;
15112;SDS011;7657;50.140;7.076;2022-10-13T13:44:54;11.52;;;5.68;;
15112;SDS011;7657;50.140;7.076;2022-10-13T13:47:22;8.23;;;5.18;;
15112;SDS011;7657;50.140;7.076;2022-10-13T13:49:51;11.75;;;6.03;;
15112;SDS011;7657;50.140;7.076;2022-10-13T13:52:19;10.20;;;5.78;;
15112;SDS011;7657;50.140;7.076;2022-10-13T13:54:47;7.57;;;5.50;;
15112;SDS011;7657;50.140;7.076;2022-10-13T13:57:14;11.90;;;5.90;;
15112;SDS011;7657;50.140;7.076;2022-10-13T13:59:42;9.32;;;6.40;;
15112;SDS011;7657;50.140;7.076;2022-10-13T14:02:13;7.35;;;5.88;;
15112;SDS011;7657;50.140;7.076;2022-10-13T14:04:42;8.68;;;5.80;;
15112;SDS011;7657;50.140;7.076;2022-10-13T14:07:09;8.43;;;5.90;;
15112;SDS011;7657;50.140;7.076;2022-10-13T14:09:36;8.93;;;5.57;;
15112;SDS011;7657;50.140;7.076;2022-10-13T14:12:03;9.48;;;6.13;;
15112;SDS011;7657;50.140;7.076;2022-10-13T14:14:31;8.35;;;5.78;;
15112;SDS011;7657;50.140;7.076;2022-10-13T14:16:58;12.50;;;6.20;;
15112;SDS011;7657;50.140;7.076;2022-10-13T14:19:29;9.00;;;5.82;;
15112;SDS011;7657;50.140;7.076;2022-10-13T14:21:56;8.82;;;5.18;;
15112;SDS011;7657;50.140;7.076;2022-10-13T14:24:23;8.55;;;5.75;;
15112;SDS011;7657;50.140;7.076;2022-10-13T14:26:50;8.18;;;5.63;;
15112;SDS011;7657;50.140;7.076;2022-10-13T14:29:16;6.43;;;5.00;;
15112;SDS011;7657;50.140;7.076;2022-10-13T14:31:43;9.15;;;5.28;;
15112;SDS011;7657;50.140;7.076;2022-10-13T14:34:10;8.75;;;5.60;;
15112;SDS011;7657;50.140;7.076;2022-10-13T14:36:39;7.85;;;5.13;;
15112;SDS011;7657;50.140;7.076;2022-10-13T14:39:06;70.00;;;43.70;;
15112;SDS011;7657;50.140;7.076;2022-10-13T14:41:32;8.70;;;6.22;;
15112;SDS011;7657;50.140;7.076;2022-10-13T14:43:59;11.07;;;6.18;;
15112;SDS011;7657;50.140;7.076;2022-10-13T14:46:26;11.35;;;6.18;;
15112;SDS011;7657;50.140;7.076;2022-10-13T14:48:53;10.15;;;6.53;;
15112;SDS011;7657;50.140;7.076;2022-10-13T14:51:21;11.15;;;6.93;;
15112;SDS011;7657;50.140;7.076;2022-10-13T14:53:49;11.90;;;6.45;;
15112;SDS011;7657;50.140;7.076;2022-10-13T14:56:17;10.52;;;7.50;;
15112;SDS011;7657;50.140;7.076;2022-10-13T14:58:45;10.35;;;6.90;;
15112;SDS011;7657;50.140;7.076;2022-10-13T15:01:12;12.55;;;7.57;;
15112;SDS011;7657;50.140;7.076;2022-10-13T15:03:39;10.05;;;7.40;;
15112;SDS011;7657;50.140;7.076;2022-10-13T15:06:06;12.63;;;7.88;;
15112;SDS011;7657;50.140;7.076;2022-10-13T15:08:35;11.70;;;7.80;;
15112;SDS011;7657;50.140;7.076;2022-10-13T15:11:04;16.25;;;8.68;;
15112;SDS011;7657;50.140;7.076;2022-10-13T15:13:31;15.38;;;10.27;;
15112;SDS011;7657;50.140;7.076;2022-10-13T15:15:58;12.82;;;8.38;;
15112;SDS011;7657;50.140;7.076;2022-10-13T15:18:26;14.52;;;10.07;;
15112;SDS011;7657;50.140;7.076;2022-10-13T15:20:53;15.15;;;10.27;;
15112;SDS011;7657;50.140;7.076;2022-10-13T15:23:20;12.98;;;8.95;;
15112;SDS011;7657;50.140;7.076;2022-10-13T15:25:51;16.85;;;11.13;;
15112;SDS011;7657;50.140;7.076;2022-10-13T15:28:21;16.15;;;10.65;;
15112;SDS011;7657;50.140;7.076;2022-10-13T15:30:49;19.30;;;12.73;;
15112;SDS011;7657;50.140;7.076;2022-10-13T15:33:16;22.33;;;15.00;;
15112;SDS011;7657;50.140;7.076;2022-10-13T15:35:43;15.32;;;10.30;;
15112;SDS011;7657;50.140;7.076;2022-10-13T15:38:13;14.05;;;9.55;;
15112;SDS011;7657;50.140;7.076;2022-10-13T15:40:40;15.38;;;8.63;;